createdAt,value
2018-10-11T00:02:27.293Z,61.99
2018-10-11T00:04:55.318Z,62.62
2018-10-11T00:07:23.144Z,62.00
2018-10-11T00:09:50.830Z,62.66
2018-10-11T00:12:18.484Z,62.19
2018-10-11T00:14:46.064Z,62.06
2018-10-11T00:17:13.756Z,62.20
2018-10-11T00:19:41.380Z,62.04
2018-10-11T00:22:09.060Z,61.96
2018-10-11T00:24:36.706Z,62.30
2018-10-11T00:27:04.337Z,61.67
2018-10-11T00:29:31.978Z,62.13
2018-10-11T00:31:59.677Z,62.13
2018-10-11T00:34:27.332Z,62.55
2018-10-11T00:36:54.998Z,62.12
2018-10-11T00:39:22.713Z,62.84
2018-10-11T00:41:50.380Z,62.29
2018-10-11T00:44:18.088Z,62.54
2018-10-11T00:46:47.071Z,62.14
2018-10-11T00:49:14.767Z,63.02
2018-10-11T00:51:42.401Z,62.44
2018-10-11T00:54:10.064Z,62.96
2018-10-11T00:56:38.080Z,62.99
2018-10-11T00:59:05.794Z,63.03
2018-10-11T01:01:33.475Z,62.44
2018-10-11T01:04:01.130Z,62.95
2018-10-11T01:06:28.784Z,62.40
2018-10-11T01:08:56.475Z,63.07
2018-10-11T01:11:24.059Z,62.41
2018-10-11T01:13:51.727Z,62.86
2018-10-11T01:16:19.346Z,62.90
2018-10-11T01:18:46.958Z,62.53
2018-10-11T01:21:14.660Z,62.39
2018-10-11T01:23:42.280Z,62.55
2018-10-11T01:26:09.944Z,62.53
2018-10-11T01:28:37.517Z,62.83
2018-10-11T01:31:10.737Z,63.32
2018-10-11T01:33:38.396Z,62.77
2018-10-11T01:36:06.037Z,63.50
2018-10-11T01:38:33.647Z,62.85
2018-10-11T01:41:01.321Z,62.78
2018-10-11T01:43:28.931Z,62.98
2018-10-11T01:45:56.583Z,63.49
2018-10-11T01:48:24.272Z,63.39
2018-10-11T01:50:51.897Z,63.59
2018-10-11T01:53:19.553Z,63.66
2018-10-11T01:55:47.140Z,63.11
2018-10-11T01:58:14.838Z,63.72
2018-10-11T02:00:42.460Z,63.76
2018-10-11T02:03:10.071Z,63.32
2018-10-11T02:05:37.770Z,63.28
2018-10-11T02:08:05.722Z,63.83
2018-10-11T02:10:33.365Z,63.87
2018-10-11T02:13:01.001Z,63.25
2018-10-11T02:15:28.637Z,63.93
2018-10-11T02:17:57.087Z,63.79
2018-10-11T02:20:24.749Z,63.50
2018-10-11T02:22:52.358Z,63.36
2018-10-11T02:25:20.596Z,63.42
2018-10-11T02:27:48.257Z,63.31
2018-10-11T02:30:15.905Z,63.24
2018-10-11T02:32:43.588Z,63.30
2018-10-11T02:35:12.001Z,63.31
2018-10-11T02:37:40.041Z,63.93
2018-10-11T02:40:07.739Z,63.47
2018-10-11T02:42:35.412Z,63.26
2018-10-11T02:45:03.060Z,63.72
2018-10-11T02:47:30.732Z,63.93
2018-10-11T02:49:58.425Z,63.46
2018-10-11T02:52:26.058Z,63.69
2018-10-11T02:54:53.662Z,63.78
2018-10-11T02:57:32.574Z,63.34
2018-10-11T03:00:01.228Z,63.42
2018-10-11T03:02:28.898Z,64.30
2018-10-11T03:04:56.607Z,64.36
2018-10-11T03:07:25.660Z,63.72
2018-10-11T03:09:53.301Z,63.72
2018-10-11T03:12:20.944Z,64.28
2018-10-11T03:14:48.613Z,64.36
2018-10-11T03:17:16.314Z,64.31
2018-10-11T03:19:44.001Z,64.53
2018-10-11T03:22:12.154Z,64.55
2018-10-11T03:24:39.857Z,64.53
2018-10-11T03:27:07.473Z,64.35
2018-10-11T03:29:35.089Z,63.83
2018-10-11T03:32:02.747Z,63.88
2018-10-11T03:34:30.465Z,63.97
2018-10-11T03:36:59.023Z,64.62
2018-10-11T03:39:27.675Z,64.60
2018-10-11T03:41:56.103Z,64.70
2018-10-11T03:44:23.754Z,64.12
2018-10-11T03:46:51.384Z,64.94
2018-10-11T03:49:19.099Z,64.89
2018-10-11T03:51:46.746Z,64.51
2018-10-11T03:54:14.393Z,64.47
2018-10-11T03:56:42.081Z,64.41
2018-10-11T03:59:09.713Z,64.46
2018-10-11T04:01:37.300Z,64.96
2018-10-11T04:04:04.970Z,64.80
2018-10-11T04:06:32.586Z,65.01
2018-10-11T04:09:00.233Z,64.39
2018-10-11T04:11:27.875Z,64.86
2018-10-11T04:13:56.021Z,64.30
2018-10-11T04:16:23.610Z,64.90
2018-10-11T04:18:51.361Z,64.33
2018-10-11T04:21:18.999Z,65.02
2018-10-11T04:23:46.708Z,64.38
2018-10-11T04:26:14.385Z,64.91
2018-10-11T04:28:42.084Z,65.34
2018-10-11T04:31:09.706Z,64.99
2018-10-11T04:33:37.391Z,64.41
2018-10-11T04:36:05.080Z,64.86
2018-10-11T04:38:32.727Z,64.15
2018-10-11T04:41:00.432Z,65.03
2018-10-11T04:43:28.139Z,64.85
2018-10-11T04:45:55.732Z,64.10
2018-10-11T04:48:23.416Z,64.57
2018-10-11T04:50:51.108Z,64.77
2018-10-11T04:53:18.716Z,64.40
2018-10-11T04:55:46.495Z,64.27
2018-10-11T04:58:14.345Z,64.16
2018-10-11T05:00:47.704Z,64.63
2018-10-11T05:03:15.368Z,64.56
2018-10-11T05:05:46.283Z,64.41
2018-10-11T05:08:13.976Z,63.90
2018-10-11T05:10:41.941Z,64.22
2018-10-11T05:13:09.597Z,64.24
2018-10-11T05:15:37.886Z,64.09
2018-10-11T05:18:06.630Z,63.54
2018-10-11T05:20:34.289Z,63.59
2018-10-11T05:23:02.010Z,63.65
2018-10-11T05:25:29.660Z,63.51
2018-10-11T05:27:57.401Z,64.65
2018-10-11T05:30:25.394Z,64.56
2018-10-11T05:32:53.941Z,64.51
2018-10-11T05:35:21.588Z,64.22
2018-10-11T05:37:49.671Z,64.82
2018-10-11T05:40:17.512Z,64.25
2018-10-11T05:42:46.750Z,64.24
2018-10-11T05:45:17.409Z,64.53
2018-10-11T05:47:47.226Z,64.01
2018-10-11T05:50:14.973Z,64.53
2018-10-11T05:52:43.436Z,64.03
2018-10-11T05:55:11.226Z,63.56
2018-10-11T05:57:40.125Z,64.23
2018-10-11T06:00:11.956Z,64.38
2018-10-11T06:03:03.948Z,64.25
2018-10-11T06:05:40.662Z,64.14
2018-10-11T06:08:14.421Z,64.15
2018-10-11T06:10:46.121Z,64.39
2018-10-11T06:13:14.145Z,63.72
2018-10-11T06:15:43.011Z,63.64
2018-10-11T06:18:11.962Z,64.14
2018-10-11T06:20:41.401Z,64.11
2018-10-11T06:23:11.007Z,64.42
2018-10-11T06:25:41.037Z,63.32
2018-10-11T06:28:08.784Z,63.79
2018-10-11T06:30:37.120Z,63.15
2018-10-11T06:33:05.229Z,63.86
2018-10-11T06:38:00.609Z,63.23
2018-10-11T06:40:28.435Z,62.80
2018-10-11T06:42:56.449Z,62.95
2018-10-11T06:45:24.223Z,62.56
2018-10-11T06:47:55.873Z,62.83
2018-10-11T06:50:23.633Z,62.62
2018-10-11T06:52:51.247Z,62.29
2018-10-11T06:55:18.978Z,62.59
2018-10-11T06:57:46.961Z,61.86
2018-10-11T07:00:14.705Z,61.97
2018-10-11T07:02:51.360Z,61.98
2018-10-11T07:05:19.014Z,62.09
2018-10-11T07:07:46.692Z,62.14
2018-10-11T07:10:14.427Z,61.36
2018-10-11T07:12:42.129Z,61.79
2018-10-11T07:15:13.267Z,61.15
2018-10-11T07:17:41.125Z,61.34
2018-10-11T07:20:08.889Z,61.54
2018-10-11T07:22:36.497Z,61.01
2018-10-11T07:25:04.226Z,61.48
2018-10-11T07:27:31.993Z,61.07
2018-10-11T07:29:59.679Z,60.53
2018-10-11T07:32:27.642Z,61.17
2018-10-11T07:34:55.598Z,61.02
2018-10-11T07:37:25.153Z,60.33
2018-10-11T07:39:54.377Z,60.74
2018-10-11T07:42:24.927Z,60.29
2018-10-11T07:44:57.694Z,60.14
2018-10-11T07:47:32.776Z,60.63
2018-10-11T07:50:01.112Z,60.16
2018-10-11T07:52:30.389Z,60.04
2018-10-11T07:55:10.546Z,60.49
2018-10-11T07:57:38.184Z,60.29
2018-10-11T08:00:06.016Z,60.27
2018-10-11T08:02:33.699Z,59.93
2018-10-11T08:05:01.394Z,59.65
2018-10-11T08:07:30.080Z,60.00
2018-10-11T08:09:57.640Z,59.93
2018-10-11T08:12:25.320Z,60.10
2018-10-11T08:14:52.982Z,59.58
2018-10-11T08:17:20.853Z,59.41
2018-10-11T08:19:48.478Z,60.08
2018-10-11T08:22:16.084Z,59.14
2018-10-11T08:24:43.891Z,59.80
2018-10-11T08:27:11.447Z,59.23
2018-10-11T08:29:39.095Z,59.26
2018-10-11T08:32:06.809Z,59.34
2018-10-11T08:34:34.469Z,59.21
2018-10-11T08:37:02.129Z,59.05
2018-10-11T08:39:29.779Z,59.65
2018-10-11T08:41:57.504Z,59.02
2018-10-11T08:44:26.130Z,59.72
2018-10-11T08:46:53.895Z,59.62
2018-10-11T08:49:21.561Z,58.92
2018-10-11T08:51:49.207Z,59.59
2018-10-11T08:54:22.529Z,59.26
2018-10-11T08:56:50.330Z,59.48
2018-10-11T08:59:18.064Z,59.44
2018-10-11T09:01:45.773Z,59.28
2018-10-11T09:04:13.564Z,59.99
2018-10-11T09:06:41.198Z,59.28
2018-10-11T09:09:09.382Z,58.92
2018-10-11T09:11:37.020Z,58.66
2018-10-11T09:14:04.706Z,59.33
2018-10-11T09:16:32.376Z,58.37
2018-10-11T09:19:00.060Z,59.08
2018-10-11T09:21:27.715Z,58.82
2018-10-11T09:23:55.401Z,58.44
2018-10-11T09:26:23.084Z,58.33
2018-10-11T09:28:50.769Z,58.43
2018-10-11T09:31:18.414Z,58.85
2018-10-11T09:33:46.034Z,58.94
2018-10-11T09:36:13.752Z,58.14
2018-10-11T09:38:41.499Z,58.99
2018-10-11T09:41:09.155Z,58.16
2018-10-11T09:43:36.791Z,58.45
2018-10-11T09:46:04.469Z,58.10
2018-10-11T09:48:32.143Z,58.55
2018-10-11T09:50:59.817Z,59.01
2018-10-11T09:53:27.418Z,58.72
2018-10-11T09:55:55.141Z,58.72
2018-10-11T09:58:22.821Z,58.15
2018-10-11T10:00:56.138Z,58.90
2018-10-11T10:03:23.781Z,58.04
2018-10-11T10:05:51.443Z,57.98
2018-10-11T10:08:19.115Z,58.00
2018-10-11T10:10:46.772Z,58.73
2018-10-11T10:13:14.480Z,58.09
2018-10-11T10:15:42.187Z,57.97
2018-10-11T10:18:09.794Z,58.05
2018-10-11T10:20:37.536Z,58.59
2018-10-11T10:23:05.189Z,58.75
2018-10-11T10:25:33.112Z,59.47
2018-10-11T10:28:00.884Z,59.13
2018-10-11T10:30:34.445Z,58.89
2018-10-11T10:33:02.540Z,58.77
2018-10-11T10:35:30.272Z,58.64
2018-10-11T10:37:59.841Z,58.63
2018-10-11T10:40:27.515Z,58.76
2018-10-11T10:42:55.764Z,58.83
2018-10-11T10:45:23.570Z,58.06
2018-10-11T10:47:51.273Z,58.82
2018-10-11T10:50:18.896Z,58.77
2018-10-11T10:52:46.590Z,58.15
2018-10-11T10:55:14.275Z,58.67
2018-10-11T10:57:41.959Z,58.35
2018-10-11T11:00:09.652Z,57.92
2018-10-11T11:02:37.302Z,57.68
2018-10-11T11:05:05.056Z,58.16
2018-10-11T11:07:32.782Z,57.63
2018-10-11T11:10:00.453Z,58.00
2018-10-11T11:12:28.177Z,57.26
2018-10-11T11:14:55.825Z,57.25
2018-10-11T11:17:23.558Z,57.36
2018-10-11T11:19:52.152Z,58.05
2018-10-11T11:22:19.918Z,58.15
2018-10-11T11:24:47.528Z,57.56
2018-10-11T11:27:15.139Z,57.90
2018-10-11T11:29:42.744Z,57.77
2018-10-11T11:32:10.351Z,57.04
2018-10-11T11:34:37.964Z,57.62
2018-10-11T11:37:05.845Z,56.95
2018-10-11T11:39:33.607Z,57.00
2018-10-11T11:42:01.227Z,56.70
2018-10-11T11:44:28.929Z,57.06
2018-10-11T11:46:56.648Z,56.43
2018-10-11T11:49:24.316Z,56.95
2018-10-11T11:51:51.994Z,56.38
2018-10-11T11:54:20.813Z,56.26
2018-10-11T11:56:49.083Z,56.90
2018-10-11T11:59:16.816Z,56.88
2018-10-11T12:01:44.487Z,57.00
2018-10-11T12:04:12.089Z,56.52
2018-10-11T12:06:39.767Z,56.71
2018-10-11T12:09:09.941Z,56.11
2018-10-11T12:11:37.655Z,56.35
2018-10-11T12:14:05.475Z,56.15
2018-10-11T12:16:33.422Z,56.69
2018-10-11T12:19:01.095Z,56.22
2018-10-11T12:21:28.785Z,56.78
2018-10-11T12:23:58.333Z,56.84
2018-10-11T12:26:26.093Z,56.31
2018-10-11T12:28:55.020Z,56.58
2018-10-11T12:31:22.797Z,56.52
2018-10-11T12:33:50.801Z,56.04
2018-10-11T12:36:18.472Z,55.70
2018-10-11T12:38:46.246Z,55.80
2018-10-11T12:41:13.879Z,55.51
2018-10-11T12:43:41.534Z,56.11
2018-10-11T12:46:09.405Z,55.76
2018-10-11T12:48:37.119Z,55.79
2018-10-11T12:51:04.862Z,55.69
2018-10-11T12:53:32.520Z,55.52
2018-10-11T12:56:00.342Z,56.04
2018-10-11T12:58:28.156Z,55.31
2018-10-11T13:00:55.848Z,55.48
2018-10-11T13:03:23.556Z,54.97
2018-10-11T13:05:51.138Z,55.13
2018-10-11T13:08:18.847Z,55.45
2018-10-11T13:10:46.585Z,55.06
2018-10-11T13:13:14.360Z,54.46
2018-10-11T13:15:42.301Z,55.22
2018-10-11T13:18:09.756Z,55.32
2018-10-11T13:20:37.418Z,54.84
2018-10-11T13:23:07.120Z,54.11
2018-10-11T13:25:32.877Z,55.02
2018-10-11T13:28:00.470Z,54.42
2018-10-11T13:30:28.179Z,54.07
2018-10-11T13:32:55.870Z,54.00
2018-10-11T13:35:23.588Z,54.29
2018-10-11T13:37:51.311Z,53.89
2018-10-11T13:40:19.054Z,53.59
2018-10-11T13:42:46.676Z,53.36
2018-10-11T13:45:14.393Z,53.79
2018-10-11T13:47:44.855Z,52.84
2018-10-11T13:50:09.678Z,53.12
2018-10-11T13:52:37.313Z,53.14
2018-10-11T13:55:09.648Z,52.89
2018-10-11T13:57:34.014Z,52.48
2018-10-11T14:00:01.731Z,51.73
2018-10-11T14:02:29.417Z,51.64
2018-10-11T14:04:57.433Z,51.67
2018-10-11T14:07:25.261Z,51.88
2018-10-11T14:09:52.920Z,52.17
2018-10-11T14:12:20.682Z,51.63
2018-10-11T14:14:48.368Z,51.72
2018-10-11T14:17:15.957Z,51.49
2018-10-11T14:19:43.628Z,51.14
2018-10-11T14:22:11.291Z,50.48
2018-10-11T14:24:39.229Z,51.04
2018-10-11T14:27:06.928Z,51.06
2018-10-11T14:29:34.498Z,50.71
2018-10-11T14:32:02.269Z,50.59
2018-10-11T14:34:30.113Z,50.65
2018-10-11T14:36:57.968Z,49.78
2018-10-11T14:39:26.936Z,49.58
2018-10-11T14:41:55.206Z,49.26
2018-10-11T14:44:22.934Z,49.41
2018-10-11T14:46:50.679Z,49.89
2018-10-11T14:49:18.434Z,49.50
2018-10-11T14:51:48.376Z,49.35
2018-10-11T14:54:14.049Z,48.29
2018-10-11T14:56:41.784Z,48.63
2018-10-11T14:59:09.574Z,48.58
2018-10-11T15:01:37.437Z,48.51
2018-10-11T15:04:05.189Z,48.75
2018-10-11T15:06:32.907Z,47.77
2018-10-11T15:09:00.602Z,48.02
2018-10-11T15:11:28.345Z,48.58
2018-10-11T15:13:55.872Z,48.04
2018-10-11T15:16:23.576Z,47.85
2018-10-11T15:18:51.199Z,47.79
2018-10-11T15:21:18.846Z,48.71
2018-10-11T15:23:46.519Z,47.61
2018-10-11T15:26:14.162Z,48.41
2018-10-11T15:28:41.837Z,48.30
2018-10-11T15:31:09.506Z,47.90
2018-10-11T15:33:37.170Z,48.19
2018-10-11T15:36:04.772Z,48.28
2018-10-11T15:38:32.376Z,48.36
2018-10-11T15:41:00.010Z,47.60
2018-10-11T15:43:27.698Z,48.67
2018-10-11T15:45:55.320Z,48.49
2018-10-11T15:48:23.027Z,48.27
2018-10-11T15:50:50.667Z,48.06
2018-10-11T15:53:18.306Z,48.45
2018-10-11T15:55:46.091Z,49.06
2018-10-11T15:58:13.758Z,48.70
2018-10-11T16:00:41.598Z,49.78
2018-10-11T16:03:09.264Z,49.72
2018-10-11T16:05:37.981Z,49.59
2018-10-11T16:08:05.727Z,50.61
2018-10-11T16:10:33.380Z,50.25
2018-10-11T16:13:01.065Z,50.37
2018-10-11T16:15:28.812Z,50.30
2018-10-11T16:17:56.421Z,51.22
2018-10-11T16:20:24.074Z,51.28
2018-10-11T16:22:51.738Z,51.08
2018-10-11T16:25:19.418Z,51.67
2018-10-11T16:27:47.120Z,52.56
2018-10-11T16:30:14.821Z,52.51
2018-10-11T16:32:42.556Z,53.53
2018-10-11T16:35:10.214Z,53.25
2018-10-11T16:37:37.864Z,53.13
2018-10-11T16:40:05.576Z,53.37
2018-10-11T16:42:33.280Z,53.85
2018-10-11T16:45:00.998Z,54.19
2018-10-11T16:47:28.688Z,54.22
2018-10-11T16:49:56.425Z,53.83
2018-10-11T16:52:24.011Z,54.42
2018-10-11T16:54:51.667Z,54.22
2018-10-11T16:57:19.363Z,54.63
2018-10-11T16:59:47.021Z,54.73
2018-10-11T17:02:14.753Z,55.42
2018-10-11T17:04:42.385Z,55.31
2018-10-11T17:07:10.022Z,55.65
2018-10-11T17:09:37.877Z,55.74
2018-10-11T17:12:05.663Z,55.43
2018-10-11T17:14:33.319Z,56.16
2018-10-11T17:17:01.124Z,56.27
2018-10-11T17:19:28.725Z,56.41
2018-10-11T17:21:56.386Z,55.82
2018-10-11T17:24:24.099Z,56.15
2018-10-11T17:26:51.777Z,56.40
2018-10-11T17:29:19.468Z,56.47
2018-10-11T17:31:47.113Z,55.80
2018-10-11T17:34:15.887Z,56.26
2018-10-11T17:36:43.537Z,55.88
2018-10-11T17:39:11.953Z,56.12
2018-10-11T17:41:40.062Z,56.80
2018-10-11T17:44:08.202Z,56.83
2018-10-11T17:46:35.818Z,57.55
2018-10-11T17:49:03.479Z,57.17
2018-10-11T17:51:31.246Z,57.45
2018-10-11T17:53:58.883Z,57.65
2018-10-11T17:56:26.572Z,57.24
2018-10-11T17:58:54.182Z,57.34
2018-10-11T18:01:21.918Z,58.11
2018-10-11T18:03:49.563Z,58.43
2018-10-11T18:06:17.162Z,58.77
2018-10-11T18:08:44.793Z,57.83
2018-10-11T18:11:12.425Z,57.89
2018-10-11T18:13:40.184Z,58.56
2018-10-11T18:16:07.771Z,58.48
2018-10-11T18:21:09.741Z,58.15
2018-10-11T18:23:37.520Z,57.71
2018-10-11T18:26:05.305Z,58.41
2018-10-11T18:28:32.978Z,58.46
2018-10-11T18:31:00.587Z,58.36
2018-10-11T18:33:28.272Z,58.35
2018-10-11T18:35:55.923Z,58.07
2018-10-11T18:38:23.541Z,58.31
2018-10-11T18:40:51.211Z,58.44
2018-10-11T18:43:18.807Z,57.74
2018-10-11T18:45:46.434Z,58.91
2018-10-11T18:48:14.120Z,58.75
2018-10-11T18:50:41.720Z,58.28
2018-10-11T18:53:09.283Z,58.97
2018-10-11T18:55:36.901Z,58.80
2018-10-11T18:58:04.552Z,58.88
2018-10-11T19:00:32.203Z,58.43
2018-10-11T19:02:59.861Z,58.96
2018-10-11T19:05:27.474Z,58.35
2018-10-11T19:07:55.054Z,59.03
2018-10-11T19:10:22.649Z,58.56
2018-10-11T19:12:50.269Z,59.08
2018-10-11T19:15:17.924Z,58.64
2018-10-11T19:17:45.585Z,58.69
2018-10-11T19:20:13.178Z,59.37
2018-10-11T19:22:40.804Z,59.45
2018-10-11T19:25:08.447Z,59.67
2018-10-11T19:27:36.020Z,59.05
2018-10-11T19:30:03.656Z,59.10
2018-10-11T19:32:31.292Z,59.76
2018-10-11T19:34:58.973Z,59.70
2018-10-11T19:37:26.607Z,59.21
2018-10-11T19:39:54.365Z,60.08
2018-10-11T19:42:21.989Z,60.06
2018-10-11T19:44:49.578Z,59.35
2018-10-11T19:47:17.249Z,59.70
2018-10-11T19:49:44.843Z,59.25
2018-10-11T19:52:12.533Z,59.72
2018-10-11T19:54:40.345Z,59.92
2018-10-11T19:57:07.963Z,59.92
2018-10-11T19:59:35.598Z,59.87
2018-10-11T20:02:03.265Z,59.52
2018-10-11T20:04:30.936Z,60.13
2018-10-11T20:06:58.546Z,59.34
2018-10-11T20:09:26.165Z,59.72
2018-10-11T20:11:53.855Z,60.14
2018-10-11T20:14:21.460Z,60.38
2018-10-11T20:16:49.062Z,60.27
2018-10-11T20:19:16.764Z,59.57
2018-10-11T20:21:44.357Z,59.84
2018-10-11T20:24:11.973Z,60.31
2018-10-11T20:26:39.572Z,60.37
2018-10-11T20:29:07.213Z,59.67
2018-10-11T20:31:34.840Z,60.46
2018-10-11T20:34:02.482Z,60.55
2018-10-11T20:36:30.139Z,59.79
2018-10-11T20:38:57.817Z,59.83
2018-10-11T20:41:25.453Z,60.46
2018-10-11T20:43:53.161Z,60.30
2018-10-11T20:46:20.800Z,60.79
2018-10-11T20:48:48.489Z,60.83
2018-10-11T20:51:16.245Z,60.41
2018-10-11T20:53:43.757Z,61.33
2018-10-11T20:56:11.391Z,61.48
2018-10-11T20:58:39.020Z,60.81
2018-10-11T21:01:06.645Z,61.44
2018-10-11T21:03:34.368Z,61.22
2018-10-11T21:06:01.977Z,61.74
2018-10-11T21:08:29.580Z,61.50
2018-10-11T21:10:57.190Z,62.04
2018-10-11T21:13:24.840Z,61.91
2018-10-11T21:15:52.466Z,61.64
2018-10-11T21:18:20.081Z,62.33
2018-10-11T21:20:47.761Z,61.60
2018-10-11T21:23:15.365Z,62.21
2018-10-11T21:25:43.105Z,61.61
2018-10-11T21:28:10.786Z,62.05
2018-10-11T21:30:38.387Z,61.33
2018-10-11T21:33:06.007Z,62.10
2018-10-11T21:35:33.594Z,61.97
2018-10-11T21:38:01.379Z,61.31
2018-10-11T21:40:28.930Z,62.19
2018-10-11T21:42:56.559Z,62.50
2018-10-11T21:45:24.228Z,61.91
2018-10-11T21:47:51.920Z,61.95
2018-10-11T21:50:19.530Z,62.43
2018-10-11T21:52:47.233Z,61.86
2018-10-11T21:55:14.833Z,61.92
2018-10-11T21:57:42.457Z,61.88
2018-10-11T22:00:10.113Z,62.44
2018-10-11T22:02:37.745Z,62.29
2018-10-11T22:05:05.453Z,62.80
2018-10-11T22:07:33.136Z,62.32
2018-10-11T22:10:00.826Z,62.97
2018-10-11T22:12:28.456Z,63.06
2018-10-11T22:14:56.132Z,62.35
2018-10-11T22:17:23.672Z,62.40
2018-10-11T22:19:51.333Z,63.27
2018-10-11T22:22:19.006Z,63.03
2018-10-11T22:24:46.585Z,63.41
2018-10-11T22:27:14.232Z,63.50
2018-10-11T22:29:41.868Z,63.00
2018-10-11T22:32:09.694Z,63.01
2018-10-11T22:34:37.371Z,63.70
2018-10-11T22:37:05.005Z,63.71
2018-10-11T22:39:32.628Z,62.86
2018-10-11T22:42:00.296Z,62.84
2018-10-11T22:44:27.951Z,62.82
2018-10-11T22:46:55.543Z,62.56
2018-10-11T22:49:23.198Z,62.59
2018-10-11T22:51:50.855Z,63.21
2018-10-11T22:54:18.460Z,62.63
2018-10-11T22:56:46.086Z,63.05
2018-10-11T22:59:13.757Z,63.08
2018-10-11T23:01:41.308Z,63.04
2018-10-11T23:04:08.907Z,63.06
2018-10-11T23:06:36.586Z,62.32
2018-10-11T23:09:06.020Z,62.54
2018-10-11T23:11:33.701Z,63.15
2018-10-11T23:14:01.301Z,62.97
2018-10-11T23:16:28.989Z,62.92
2018-10-11T23:18:56.593Z,63.17
2018-10-11T23:21:24.219Z,62.41
2018-10-11T23:23:51.857Z,62.60
2018-10-11T23:26:19.427Z,63.21
2018-10-11T23:28:47.016Z,62.53
2018-10-11T23:31:14.632Z,62.76
2018-10-11T23:33:42.548Z,63.27
2018-10-11T23:36:10.387Z,63.55
2018-10-11T23:38:38.393Z,62.87
2018-10-11T23:41:06.397Z,62.93
2018-10-11T23:43:34.049Z,63.20
2018-10-11T23:46:01.663Z,64.02
2018-10-11T23:48:29.345Z,64.03
2018-10-11T23:50:56.982Z,64.05
2018-10-11T23:53:24.610Z,63.55
2018-10-11T23:55:52.208Z,63.53
2018-10-11T23:58:19.848Z,63.87
